Time;durP1;ratioP1;P1;durP2;ratioP2;P2;SDS_P1;SDS_P2;PMS_P1;PMS_P2;Temp;Humidity;BMP_temperature;BMP_pressure;BME280_temperature;BME280_humidity;BME280_pressure;Samples;Min_cycle;Max_cycle;Signal;HPM_P1;HPM_P2
2022/01/08 00:00:31;;;;;;;30.70;13.20;;;;;;;-1.48;61.17;100086.58;130206;1270;108877;-73
2022/01/08 00:03:45;;;;;;;30.50;13.10;;;;;;;-1.50;60.91;100087.23;130206;1270;108920;-73
2022/01/08 00:06:51;;;;;;;36.70;15.30;;;;;;;-1.51;60.93;100084.15;130182;1269;108455;-74
2022/01/08 00:09:56;;;;;;;32.80;13.80;;;;;;;-1.52;61.11;100085.60;130217;1270;108604;-74
2022/01/08 00:13:05;;;;;;;38.20;16.20;;;;;;;-1.54;61.17;100078.20;130196;1270;108698;-73
2022/01/08 00:16:10;;;;;;;30.70;13.50;;;;;;;-1.54;61.15;100081.52;130220;1270;108815;-73
2022/01/08 00:19:15;;;;;;;25.50;11.60;;;;;;;-1.57;61.05;100072.94;130267;1270;108964;-73
2022/01/08 00:22:21;;;;;;;26.90;12.90;;;;;;;-1.59;60.92;100071.64;130311;1270;108866;-73
2022/01/08 00:25:26;;;;;;;27.30;11.50;;;;;;;-1.62;60.98;100067.80;130312;1269;108720;-73
2022/01/08 00:28:32;;;;;;;25.60;12.20;;;;;;;-1.66;60.95;100066.92;130253;1270;108834;-73
2022/01/08 00:31:37;;;;;;;25.80;11.20;;;;;;;-1.69;61.01;100061.71;130299;1269;107001;-74
2022/01/08 00:34:43;;;;;;;36.70;17.80;;;;;;;-1.72;61.11;100055.07;130247;1270;108910;-72
2022/01/08 00:37:49;;;;;;;29.70;13.20;;;;;;;-1.75;60.88;100056.61;130282;1268;108468;-73
2022/01/08 00:40:54;;;;;;;28.40;12.00;;;;;;;-1.78;60.91;100054.69;130265;1270;108541;-74
2022/01/08 00:43:59;;;;;;;33.80;14.50;;;;;;;-1.81;60.99;100056.39;130277;1270;108911;-74
2022/01/08 00:47:05;;;;;;;28.10;12.40;;;;;;;-1.85;60.83;100051.54;130254;1270;108892;-72
2022/01/08 00:50:12;;;;;;;25.00;11.50;;;;;;;-1.88;60.91;100044.89;130337;1270;108761;-73
2022/01/08 00:53:18;;;;;;;24.10;11.00;;;;;;;-1.90;60.90;100041.34;130361;1270;108615;-73
2022/01/08 00:56:24;;;;;;;25.00;11.60;;;;;;;-1.93;60.95;100043.77;130257;1268;108788;-74
2022/01/08 00:59:29;;;;;;;25.00;12.60;;;;;;;-1.96;60.79;100042.67;130205;1270;109088;-73
2022/01/08 01:02:35;;;;;;;32.60;15.40;;;;;;;-1.98;60.99;100038.25;130227;1270;109016;-73
2022/01/08 01:05:40;;;;;;;31.40;13.70;;;;;;;-2.01;60.72;100034.23;130259;1270;108686;-74
2022/01/08 01:08:45;;;;;;;27.10;11.70;;;;;;;-2.03;60.67;100033.10;130273;1269;108143;-74
2022/01/08 01:11:55;;;;;;;26.30;12.20;;;;;;;-2.04;60.69;100028.80;130257;1270;108744;-73
2022/01/08 01:15:01;;;;;;;29.30;11.90;;;;;;;-2.06;60.96;100028.73;130261;1270;108879;-73
2022/01/08 01:18:06;;;;;;;26.30;12.70;;;;;;;-2.08;60.70;100021.51;130303;1270;106924;-73
2022/01/08 01:21:12;;;;;;;31.40;13.00;;;;;;;-2.10;60.71;100021.09;130189;1270;108778;-73
2022/01/08 01:24:21;;;;;;;26.80;12.10;;;;;;;-2.11;60.81;100009.65;130281;1268;108876;-74
2022/01/08 01:41:05;;;;;;;27.40;11.60;;;;;;;-2.14;60.75;100014.48;130223;1270;108823;-74
2022/01/08 01:41:21;;;;;;;25.90;11.50;;;;;;;-2.16;60.67;100001.35;130249;1269;108731;-73
2022/01/08 01:47:50;;;;;;;34.90;14.60;;;;;;;-2.21;60.56;99993.42;130234;1270;108750;-72
2022/01/08 01:50:55;;;;;;;28.40;11.70;;;;;;;-2.23;60.79;99989.33;130205;1270;109030;-73
2022/01/08 01:54:01;;;;;;;26.20;12.10;;;;;;;-2.23;60.74;99986.25;130255;1270;108704;-72
2022/01/08 01:57:08;;;;;;;26.30;11.30;;;;;;;-2.25;60.90;99984.56;130228;1270;108711;-73
2022/01/08 02:00:15;;;;;;;25.00;10.90;;;;;;;-2.27;60.74;99987.79;130323;1270;106765;-74
2022/01/08 02:03:21;;;;;;;27.30;12.20;;;;;;;-2.28;60.91;99985.05;130317;1270;108931;-74
2022/01/08 02:06:26;;;;;;;25.00;11.70;;;;;;;-2.31;60.52;99987.67;130267;1270;109755;-73
2022/01/08 02:09:33;;;;;;;26.00;12.20;;;;;;;-2.33;60.53;99984.64;130296;1270;108653;-73
2022/01/08 02:12:38;;;;;;;26.50;11.60;;;;;;;-2.36;60.88;99986.36;130269;1270;108638;-73
2022/01/08 02:15:49;;;;;;;27.60;12.50;;;;;;;-2.39;60.75;99988.25;129964;1270;108983;-72
2022/01/08 02:18:55;;;;;;;26.50;11.10;;;;;;;-2.42;60.83;99984.55;130174;1270;109178;-73
2022/01/08 02:22:03;;;;;;;71.20;35.80;;;;;;;-2.44;60.96;99976.10;130202;1269;108505;-73
2022/01/08 02:25:09;;;;;;;48.90;21.40;;;;;;;-2.46;60.91;99975.02;130162;1270;108999;-73
2022/01/08 02:28:15;;;;;;;30.80;13.70;;;;;;;-2.48;60.79;99971.10;130192;1270;108999;-75
2022/01/08 02:31:25;;;;;;;31.70;13.40;;;;;;;-2.50;61.03;99975.03;130199;1270;108570;-72
2022/01/08 02:34:30;;;;;;;29.80;12.80;;;;;;;-2.52;60.89;99976.52;130202;1270;108609;-74
2022/01/08 02:37:36;;;;;;;28.50;11.90;;;;;;;-2.53;61.06;99978.65;130178;1270;108669;-73
2022/01/08 02:40:50;;;;;;;27.40;13.10;;;;;;;-2.56;60.99;99969.56;130201;1270;108745;-72
2022/01/08 02:43:55;;;;;;;31.60;14.30;;;;;;;-2.58;60.95;99965.66;130256;1270;107606;-73
2022/01/08 02:47:01;;;;;;;29.30;12.40;;;;;;;-2.60;61.13;99964.03;130208;1270;108661;-73
2022/01/08 02:50:08;;;;;;;28.40;12.50;;;;;;;-2.63;61.02;99961.04;130193;1269;108898;-72
2022/01/08 02:53:14;;;;;;;42.40;16.90;;;;;;;-2.65;61.14;99959.92;130169;1270;109005;-73
2022/01/08 02:56:19;;;;;;;32.10;13.10;;;;;;;-2.65;61.02;99958.21;130081;1268;199381;-73
2022/01/08 02:59:25;;;;;;;59.50;22.60;;;;;;;-2.67;61.10;99964.55;130157;1270;108940;-73
2022/01/08 03:02:31;;;;;;;40.90;16.50;;;;;;;-2.68;61.16;99966.71;130123;1270;108821;-73
2022/01/08 03:05:36;;;;;;;47.40;19.30;;;;;;;-2.70;61.36;99965.05;130208;1270;108833;-73
2022/01/08 03:08:42;;;;;;;48.20;20.00;;;;;;;-2.71;61.11;99959.20;130295;1270;108782;-73
2022/01/08 03:11:47;;;;;;;27.00;12.00;;;;;;;-2.71;61.15;99960.07;130280;1270;108715;-74
2022/01/08 03:14:52;;;;;;;28.30;11.80;;;;;;;-2.73;61.36;99958.59;130170;1270;108754;-73
2022/01/08 03:17:58;;;;;;;24.10;11.60;;;;;;;-2.73;61.21;99955.11;130186;1270;108801;-72
2022/01/08 03:21:13;;;;;;;24.70;10.70;;;;;;;-2.73;61.46;99942.41;130244;1268;108638;-74
2022/01/08 03:24:26;;;;;;;36.80;14.40;;;;;;;-2.76;61.31;99932.08;130240;1270;109040;-74
2022/01/08 03:27:31;;;;;;;25.80;11.90;;;;;;;-2.77;61.52;99936.15;130190;1270;106879;-74
2022/01/08 03:30:37;;;;;;;25.40;11.00;;;;;;;-2.79;61.27;99929.98;130153;1270;108923;-75
2022/01/08 03:33:43;;;;;;;25.10;10.70;;;;;;;-2.81;61.46;99924.16;130167;1270;108716;-74
2022/01/08 03:36:49;;;;;;;27.70;11.30;;;;;;;-2.83;61.38;99923.02;130241;1270;108263;-73
2022/01/08 03:39:54;;;;;;;26.00;11.30;;;;;;;-2.86;61.56;99919.86;130205;1271;108681;-72
2022/01/08 03:43:00;;;;;;;27.00;12.00;;;;;;;-2.86;61.50;99917.63;130056;1270;108883;-74
2022/01/08 03:46:05;;;;;;;25.90;11.10;;;;;;;-2.88;61.45;99916.31;130188;1269;108603;-72
2022/01/08 03:49:22;;;;;;;23.20;10.90;;;;;;;-2.90;61.75;99918.17;130252;1270;108722;-75
2022/01/08 03:52:28;;;;;;;24.70;11.30;;;;;;;-2.92;61.75;99912.52;130214;1270;108839;-73
2022/01/08 03:55:33;;;;;;;22.00;10.80;;;;;;;-2.93;61.80;99910.85;130081;1271;108886;-74
2022/01/08 03:58:39;;;;;;;26.90;11.70;;;;;;;-2.94;61.76;99916.27;130201;1270;108801;-72
2022/01/08 04:01:44;;;;;;;25.60;11.30;;;;;;;-2.94;61.69;99914.20;130216;1270;108859;-75
2022/01/08 04:04:50;;;;;;;26.30;11.50;;;;;;;-2.97;61.73;99914.30;130227;1271;108702;-75
2022/01/08 04:07:55;;;;;;;26.90;11.80;;;;;;;-2.98;61.94;99913.17;130187;1270;108728;-74
2022/01/08 04:11:01;;;;;;;25.30;12.20;;;;;;;-3.01;61.92;99906.01;130200;1271;108865;-74
2022/01/08 04:14:07;;;;;;;26.20;11.20;;;;;;;-3.03;62.10;99913.92;130216;1269;108664;-74
2022/01/08 04:17:14;;;;;;;28.50;11.90;;;;;;;-3.05;62.06;99913.19;130207;1270;109240;-72
2022/01/08 04:20:22;;;;;;;31.30;13.10;;;;;;;-3.07;62.18;99911.71;130271;1270;108693;-74
2022/01/08 04:23:27;;;;;;;27.20;12.10;;;;;;;-3.09;62.07;99910.40;130191;1271;108899;-73
2022/01/08 04:26:32;;;;;;;26.10;12.00;;;;;;;-3.10;62.10;99908.55;130271;1270;108833;-73
2022/01/08 04:29:38;;;;;;;25.20;12.10;;;;;;;-3.11;62.23;99904.09;130244;1270;108767;-73
2022/01/08 04:32:44;;;;;;;29.60;11.80;;;;;;;-3.15;62.03;99901.29;130245;1269;108943;-73
2022/01/08 04:35:49;;;;;;;30.40;13.20;;;;;;;-3.16;62.18;99900.80;130276;1270;107156;-74
2022/01/08 04:38:54;;;;;;;29.20;12.30;;;;;;;-3.16;62.21;99901.67;130252;1271;108701;-73
2022/01/08 04:42:00;;;;;;;27.00;12.20;;;;;;;-3.16;62.33;99913.52;130286;1269;108800;-73
2022/01/08 04:45:06;;;;;;;26.00;11.70;;;;;;;-3.17;62.17;99910.44;130251;1270;108685;-74
2022/01/08 04:48:12;;;;;;;28.30;12.10;;;;;;;-3.17;62.12;99909.75;130282;1270;108821;-74
2022/01/08 04:51:17;;;;;;;30.30;13.90;;;;;;;-3.18;62.21;99905.25;130263;1271;109356;-73
2022/01/08 04:54:23;;;;;;;28.40;13.00;;;;;;;-3.18;62.18;99906.10;130182;1271;107232;-72
2022/01/08 04:57:28;;;;;;;27.40;12.90;;;;;;;-3.18;62.44;99900.72;129958;1270;108684;-73
2022/01/08 05:00:36;;;;;;;27.30;12.80;;;;;;;-3.18;62.32;99895.15;130220;1271;109090;-72
2022/01/08 05:03:42;;;;;;;30.80;13.70;;;;;;;-3.17;62.38;99886.25;130240;1270;108711;-71
2022/01/08 05:06:47;;;;;;;31.20;13.30;;;;;;;-3.18;62.31;99884.35;130268;1271;108842;-72
2022/01/08 05:09:53;;;;;;;28.30;13.20;;;;;;;-3.17;62.42;99883.13;130253;1270;108850;-72
2022/01/08 05:13:00;;;;;;;29.50;13.50;;;;;;;-3.18;62.47;99881.95;130223;1270;108155;-72
2022/01/08 05:16:06;;;;;;;29.00;13.70;;;;;;;-3.19;62.28;99885.33;130202;1269;108728;-74
2022/01/08 05:19:20;;;;;;;30.70;13.30;;;;;;;-3.19;62.55;99887.73;130212;1271;108684;-72
2022/01/08 05:22:28;;;;;;;32.70;14.40;;;;;;;-3.19;62.46;99891.04;130258;1270;108692;-74
2022/01/08 05:25:35;;;;;;;29.60;14.80;;;;;;;-3.19;62.53;99893.32;130271;1271;108732;-73
2022/01/08 05:28:40;;;;;;;30.00;13.50;;;;;;;-3.20;62.53;99894.23;130256;1270;108949;-72
2022/01/08 05:31:48;;;;;;;32.70;14.20;;;;;;;-3.21;62.63;99889.91;130186;1269;106671;-72
2022/01/08 05:34:54;;;;;;;30.30;13.90;;;;;;;-3.22;62.56;99889.30;130103;1269;107588;-72
2022/01/08 05:38:00;;;;;;;31.80;13.70;;;;;;;-3.23;62.33;99888.80;130281;1271;108759;-72
2022/01/08 05:41:05;;;;;;;31.30;13.50;;;;;;;-3.26;62.44;99887.02;130237;1270;108859;-73
2022/01/08 05:44:11;;;;;;;31.30;13.90;;;;;;;-3.26;62.52;99887.55;130248;1271;108746;-73
2022/01/08 05:47:16;;;;;;;36.50;15.00;;;;;;;-3.26;62.33;99886.52;130169;1271;109351;-74
2022/01/08 05:50:22;;;;;;;28.20;13.30;;;;;;;-3.27;62.49;99889.86;130283;1271;108829;-74
2022/01/08 05:53:27;;;;;;;33.00;14.20;;;;;;;-3.29;62.45;99890.48;130165;1269;108757;-72
2022/01/08 05:56:32;;;;;;;38.60;15.50;;;;;;;-3.29;62.48;99886.14;130162;1271;108892;-73
2022/01/08 05:59:38;;;;;;;45.10;17.90;;;;;;;-3.29;62.46;99885.27;130068;1271;108681;-74
2022/01/08 06:02:43;;;;;;;35.50;15.40;;;;;;;-3.30;62.58;99888.13;130247;1271;109897;-72
2022/01/08 06:05:49;;;;;;;32.20;14.30;;;;;;;-3.33;62.58;99884.77;130140;1271;108709;-75
2022/01/08 06:08:54;;;;;;;34.60;15.10;;;;;;;-3.34;62.46;99885.16;130076;1271;108873;-73
2022/01/08 06:12:00;;;;;;;35.30;15.00;;;;;;;-3.35;62.76;99881.90;130393;1271;109301;-71
2022/01/08 06:15:06;;;;;;;37.50;15.40;;;;;;;-3.36;62.52;99881.25;130013;1271;106596;-71
2022/01/08 06:18:12;;;;;;;54.50;21.10;;;;;;;-3.35;62.46;99879.82;130027;1271;108784;-72
2022/01/08 06:21:17;;;;;;;39.40;17.30;;;;;;;-3.36;62.57;99878.84;130001;1270;108741;-72
2022/01/08 06:24:22;;;;;;;36.30;16.00;;;;;;;-3.37;62.75;99878.16;130018;1271;108895;-72
2022/01/08 06:27:28;;;;;;;34.70;15.20;;;;;;;-3.38;62.59;99877.55;130027;1268;107280;-71
2022/01/08 06:30:33;;;;;;;29.90;13.80;;;;;;;-3.41;62.66;99878.52;130082;1271;108782;-72
2022/01/08 06:33:39;;;;;;;30.60;14.30;;;;;;;-3.40;62.70;99879.02;130079;1271;108920;-70
2022/01/08 06:36:44;;;;;;;33.20;14.60;;;;;;;-3.40;62.71;99879.35;130076;1269;108822;-72
2022/01/08 06:39:50;;;;;;;33.10;14.30;;;;;;;-3.40;62.77;99883.55;130151;1271;107675;-72
2022/01/08 06:42:56;;;;;;;34.00;15.20;;;;;;;-3.40;62.73;99880.06;130165;1270;107406;-72
2022/01/08 06:46:01;;;;;;;30.20;13.40;;;;;;;-3.38;62.77;99878.95;130109;1271;108709;-71
2022/01/08 06:49:07;;;;;;;35.10;14.60;;;;;;;-3.38;62.77;99876.48;130144;1268;108668;-72
2022/01/08 06:52:12;;;;;;;31.40;14.30;;;;;;;-3.36;62.74;99872.92;130057;1270;107714;-72
2022/01/08 06:55:17;;;;;;;38.00;15.00;;;;;;;-3.34;62.88;99872.29;130182;1270;108988;-72
2022/01/08 06:58:25;;;;;;;47.70;23.10;;;;;;;-3.32;62.82;99876.57;130170;1271;108832;-73
2022/01/08 07:01:30;;;;;;;41.10;19.60;;;;;;;-3.28;62.79;99880.36;130217;1271;108514;-71
2022/01/08 07:04:36;;;;;;;35.10;15.00;;;;;;;-3.26;62.91;99880.59;130124;1271;108834;-71
2022/01/08 07:07:41;;;;;;;31.80;13.40;;;;;;;-3.24;63.00;99882.58;130345;1271;109001;-72
2022/01/08 07:10:46;;;;;;;29.90;13.60;;;;;;;-3.21;62.85;99879.48;130154;1271;108832;-71
2022/01/08 07:13:52;;;;;;;28.50;13.00;;;;;;;-3.19;62.73;99873.81;130107;1271;106769;-71
2022/01/08 07:16:57;;;;;;;30.00;13.60;;;;;;;-3.16;62.82;99864.09;130104;1270;108740;-72
2022/01/08 07:20:03;;;;;;;29.80;13.20;;;;;;;-3.12;62.74;99858.18;130012;1270;106817;-70
2022/01/08 07:23:08;;;;;;;32.10;15.20;;;;;;;-3.06;62.64;99852.85;129969;1270;108851;-71
2022/01/08 07:26:14;;;;;;;34.20;15.30;;;;;;;-3.02;62.79;99859.79;130189;1270;108895;-72
2022/01/08 07:29:19;;;;;;;30.80;14.80;;;;;;;-2.98;62.82;99859.05;130234;1268;108841;-71
2022/01/08 07:32:25;;;;;;;32.00;15.60;;;;;;;-2.94;62.78;99856.95;130292;1268;109025;-72
2022/01/08 07:35:30;;;;;;;39.80;20.40;;;;;;;-2.91;62.73;99852.63;130323;1268;108943;-73
2022/01/08 07:38:35;;;;;;;35.50;16.70;;;;;;;-2.85;62.70;99854.55;130298;1268;108711;-71
2022/01/08 07:41:41;;;;;;;28.10;14.60;;;;;;;-2.78;62.93;99855.77;130286;1268;108748;-71
2022/01/08 07:44:46;;;;;;;31.20;14.90;;;;;;;-2.72;62.70;99860.54;130307;1268;108728;-73
2022/01/08 07:47:52;;;;;;;31.30;14.00;;;;;;;-2.67;62.74;99861.67;130275;1268;107839;-72
2022/01/08 07:50:58;;;;;;;30.50;15.80;;;;;;;-2.62;62.70;99862.95;130290;1267;108758;-71
2022/01/08 07:54:03;;;;;;;30.00;14.90;;;;;;;-2.56;62.62;99852.22;130327;1268;108818;-72
2022/01/08 07:57:09;;;;;;;34.00;15.80;;;;;;;-2.51;62.35;99848.84;130381;1268;108935;-72
2022/01/08 08:00:15;;;;;;;47.50;20.10;;;;;;;-2.46;62.60;99847.35;130296;1268;108876;-71
2022/01/08 08:03:21;;;;;;;42.80;19.60;;;;;;;-2.38;62.73;99848.68;130292;1267;109030;-71
2022/01/08 08:06:27;;;;;;;66.90;28.50;;;;;;;-2.27;62.71;99850.02;130279;1268;108159;-71
2022/01/08 08:09:32;;;;;;;107.40;42.60;;;;;;;-2.15;62.86;99853.03;130280;1268;108705;-71
2022/01/08 08:12:38;;;;;;;44.20;19.10;;;;;;;-2.04;62.91;99852.79;130288;1268;107567;-71
2022/01/08 08:15:44;;;;;;;58.20;23.70;;;;;;;-1.92;62.85;99852.66;130280;1268;107326;-71
2022/01/08 08:18:49;;;;;;;44.10;20.00;;;;;;;-1.83;62.69;99852.14;130297;1268;107516;-71
2022/01/08 08:21:54;;;;;;;34.00;15.90;;;;;;;-1.72;62.96;99848.75;130328;1268;108833;-72
2022/01/08 08:25:00;;;;;;;35.50;16.60;;;;;;;-1.59;62.98;99850.48;130302;1268;108781;-73
2022/01/08 08:28:07;;;;;;;32.30;16.30;;;;;;;-1.44;62.56;99855.41;130300;1268;108801;-73
2022/01/08 08:31:12;;;;;;;32.60;16.70;;;;;;;-1.26;62.89;99853.17;130367;1268;108759;-71
2022/01/08 08:34:18;;;;;;;32.50;15.90;;;;;;;-1.11;62.75;99849.35;130365;1268;108674;-72
2022/01/08 08:37:23;;;;;;;32.10;15.70;;;;;;;-0.97;62.48;99846.98;130274;1268;107708;-71
2022/01/08 08:40:28;;;;;;;28.70;15.00;;;;;;;-0.83;62.36;99840.90;130281;1268;108843;-72
2022/01/08 08:43:34;;;;;;;32.40;16.50;;;;;;;-0.71;62.69;99846.67;130320;1268;108967;-72
2022/01/08 08:46:39;;;;;;;31.90;16.00;;;;;;;-0.59;62.55;99844.54;130285;1268;108671;-72
2022/01/08 08:49:45;;;;;;;34.20;16.90;;;;;;;-0.49;62.37;99847.05;130364;1268;109571;-74
2022/01/08 08:52:50;;;;;;;42.70;20.50;;;;;;;-0.34;62.38;99848.13;130312;1268;108798;-71
2022/01/08 08:55:55;;;;;;;32.10;16.70;;;;;;;-0.25;62.46;99848.27;130354;1268;108985;-72
2022/01/08 08:59:01;;;;;;;35.60;17.40;;;;;;;-0.18;62.21;99840.17;130271;1268;108990;-72
2022/01/08 09:02:06;;;;;;;35.00;16.90;;;;;;;-0.19;62.34;99836.66;130287;1266;106777;-73
2022/01/08 09:05:13;;;;;;;34.30;17.20;;;;;;;-0.15;62.32;99832.60;130315;1267;108695;-72
2022/01/08 09:08:18;;;;;;;37.90;18.70;;;;;;;-0.14;62.24;99840.42;130155;1268;108705;-72
2022/01/08 09:11:23;;;;;;;37.20;19.80;;;;;;;-0.13;62.23;99842.98;130302;1268;107744;-72
2022/01/08 09:14:29;;;;;;;54.70;24.50;;;;;;;-0.10;62.34;99849.79;130322;1268;108749;-73
2022/01/08 09:17:36;;;;;;;39.70;18.30;;;;;;;-0.10;62.37;99844.00;130329;1266;108736;-72
2022/01/08 09:20:41;;;;;;;35.40;18.80;;;;;;;-0.09;62.48;99846.56;130335;1268;108841;-72
2022/01/08 09:23:47;;;;;;;35.90;18.90;;;;;;;-0.12;62.46;99851.61;130314;1268;108518;-72
2022/01/08 09:26:52;;;;;;;68.40;26.80;;;;;;;-0.12;62.39;99847.96;130275;1268;108694;-71
2022/01/08 09:29:58;;;;;;;74.40;29.30;;;;;;;-0.11;62.51;99846.33;130249;1268;108986;-72
2022/01/08 09:33:03;;;;;;;115.90;40.40;;;;;;;-0.08;62.77;99848.97;130321;1268;108739;-73
2022/01/08 09:36:09;;;;;;;239.80;91.00;;;;;;;-0.05;62.72;99846.50;130249;1268;107687;-71
2022/01/08 09:39:15;;;;;;;67.90;29.10;;;;;;;-0.03;62.75;99844.98;130392;1268;107081;-71
2022/01/08 09:42:21;;;;;;;38.90;18.40;;;;;;;-0.00;62.69;99842.15;130325;1269;107207;-71
2022/01/08 09:45:26;;;;;;;33.60;17.00;;;;;;;0.01;62.81;99837.92;130348;1268;108803;-72
2022/01/08 09:48:32;;;;;;;118.80;63.20;;;;;;;0.04;62.80;99833.20;130021;1269;108821;-72
2022/01/08 09:51:37;;;;;;;86.00;46.70;;;;;;;0.04;62.82;99837.20;130169;1268;108757;-72
2022/01/08 09:54:43;;;;;;;50.80;26.10;;;;;;;0.06;62.82;99841.27;130315;1268;108577;-73
2022/01/08 09:57:48;;;;;;;37.70;19.00;;;;;;;0.08;62.94;99835.16;130246;1268;108746;-72
2022/01/08 10:00:54;;;;;;;34.60;18.70;;;;;;;0.08;63.00;99831.34;130234;1268;108855;-72
2022/01/08 10:04:00;;;;;;;37.10;18.30;;;;;;;0.08;62.94;99823.45;130235;1268;106988;-72
2022/01/08 10:07:21;;;;;;;40.40;18.90;;;;;;;0.08;63.03;99814.20;130327;1268;108715;-72
2022/01/08 10:10:28;;;;;;;35.50;17.60;;;;;;;0.14;63.09;99805.59;130337;1268;109984;-72
2022/01/08 10:13:36;;;;;;;35.10;18.30;;;;;;;0.20;62.88;99801.36;130386;1267;108934;-72
2022/01/08 10:20:09;;;;;;;34.20;18.20;;;;;;;0.34;63.06;99788.95;130127;1270;108712;-73
2022/01/08 10:23:18;;;;;;;36.60;20.40;;;;;;;0.43;63.09;99778.75;130150;1270;108858;-74
2022/01/08 10:26:30;;;;;;;38.30;20.00;;;;;;;0.57;63.18;99778.84;130200;1268;108684;-71
2022/01/08 10:29:35;;;;;;;;;;;;;;;0.73;63.00;99774.82;130265;1270;108660;-84
2022/01/08 10:32:55;;;;;;;46.30;25.50;;;;;;;0.85;63.19;99768.98;130218;1268;108668;-73
2022/01/08 10:36:00;;;;;;;46.40;25.60;;;;;;;0.96;63.25;99768.42;130267;1268;108548;-71
2022/01/08 10:39:07;;;;;;;40.70;20.50;;;;;;;1.05;63.32;99767.76;130321;1268;108732;-72
2022/01/08 10:42:16;;;;;;;57.20;32.40;;;;;;;1.13;63.27;99770.73;130180;1270;108868;-72
2022/01/08 10:45:23;;;;;;;89.70;32.40;;;;;;;1.17;63.21;99779.56;130348;1268;107211;-73
2022/01/08 10:48:32;;;;;;;165.50;73.30;;;;;;;1.21;63.27;99778.27;130275;1268;108986;-72
2022/01/08 10:51:40;;;;;;;58.40;29.30;;;;;;;1.23;63.22;99776.73;130308;1268;108578;-73
2022/01/08 10:54:47;;;;;;;34.80;19.70;;;;;;;1.19;63.21;99774.34;130359;1268;110009;-72
2022/01/08 10:57:52;;;;;;;36.20;19.40;;;;;;;1.18;63.43;99776.33;130324;1268;108956;-73
2022/01/08 11:00:57;;;;;;;206.50;112.70;;;;;;;1.17;63.49;99778.36;130306;1268;108800;-72
2022/01/08 11:04:03;;;;;;;59.40;33.80;;;;;;;1.16;63.49;99775.26;130329;1268;108672;-72
2022/01/08 11:07:10;;;;;;;46.60;26.60;;;;;;;1.14;63.47;99775.08;130296;1268;108812;-73
2022/01/08 11:10:19;;;;;;;49.00;27.30;;;;;;;1.10;63.60;99769.38;130292;1269;107881;-72
2022/01/08 11:13:25;;;;;;;42.90;22.80;;;;;;;1.10;63.50;99767.06;130302;1268;106846;-73
2022/01/08 11:16:31;;;;;;;35.50;19.70;;;;;;;1.09;63.63;99767.34;130382;1268;109102;-71
2022/01/08 11:19:40;;;;;;;31.80;17.90;;;;;;;1.08;63.59;99759.90;130235;1268;108802;-72
2022/01/08 11:22:47;;;;;;;34.90;21.10;;;;;;;1.06;63.78;99759.10;130298;1268;107857;-72
2022/01/08 11:25:57;;;;;;;31.80;17.60;;;;;;;1.08;63.74;99752.48;130381;1268;107088;-71
2022/01/08 11:29:04;;;;;;;138.00;64.80;;;;;;;1.09;63.89;99751.73;130246;1268;108937;-73
2022/01/08 11:32:12;;;;;;;123.30;64.20;;;;;;;1.12;63.86;99753.11;130293;1268;107280;-69
2022/01/08 11:35:21;;;;;;;55.90;28.20;;;;;;;1.15;64.04;99755.88;130255;1268;108663;-73
2022/01/08 11:38:28;;;;;;;41.10;22.40;;;;;;;1.17;64.01;99757.34;130404;1268;106753;-72
2022/01/08 11:41:33;;;;;;;39.30;20.60;;;;;;;1.20;64.01;99754.33;130252;1270;109894;-72
2022/01/08 11:44:39;;;;;;;37.00;20.70;;;;;;;1.24;64.01;99756.64;130370;1268;108319;-73
2022/01/08 11:47:48;;;;;;;38.50;20.50;;;;;;;1.27;64.04;99758.42;130356;1268;108446;-73
2022/01/08 11:50:56;;;;;;;38.40;20.60;;;;;;;1.29;64.02;99757.02;130398;1268;106751;-73
2022/01/08 11:54:03;;;;;;;38.50;20.10;;;;;;;1.31;64.04;99752.50;130502;1268;108627;-72
2022/01/08 11:57:19;;;;;;;39.90;21.30;;;;;;;1.35;64.09;99752.02;130246;1269;108764;-71
2022/01/08 12:00:48;;;;;;;38.70;21.40;;;;;;;1.36;64.13;99746.02;130167;1270;108771;-72
2022/01/08 12:03:55;;;;;;;40.60;21.00;;;;;;;1.33;64.19;99739.08;130186;1269;108754;-73
2022/01/08 12:07:21;;;;;;;41.20;22.10;;;;;;;1.31;64.31;99744.60;130214;1270;108636;-73
2022/01/08 12:10:30;;;;;;;43.30;21.20;;;;;;;1.29;64.43;99743.20;130256;1270;108893;-73
2022/01/08 12:13:47;;;;;;;40.70;22.00;;;;;;;1.28;64.46;99740.48;130243;1270;110318;-74
2022/01/08 12:16:55;;;;;;;39.80;20.80;;;;;;;1.28;64.68;99740.80;130279;1268;108682;-72
2022/01/08 12:20:00;;;;;;;47.00;23.80;;;;;;;1.31;64.70;99737.64;129970;1270;108713;-71
2022/01/08 12:23:35;;;;;;;39.40;22.20;;;;;;;1.33;64.77;99733.08;130218;1269;108794;-73
2022/01/08 12:26:40;;;;;;;45.90;22.50;;;;;;;1.36;64.82;99734.30;130257;1269;108936;-72
2022/01/08 12:29:46;;;;;;;41.80;21.60;;;;;;;1.39;64.79;99737.39;130232;1270;108617;-78
2022/01/08 12:33:13;;;;;;;40.40;20.00;;;;;;;1.45;64.78;99731.20;130482;1268;108849;-78
2022/01/08 12:36:32;;;;;;;39.50;19.10;;;;;;;1.55;64.80;99726.48;130315;1268;108670;-77
2022/01/08 12:39:53;;;;;;;37.60;19.60;;;;;;;1.64;64.83;99725.69;130342;1268;108808;-78
2022/01/08 12:42:59;;;;;;;41.60;20.40;;;;;;;1.73;64.83;99723.95;130287;1268;108730;-78
2022/01/08 12:46:17;;;;;;;36.50;20.10;;;;;;;1.81;64.73;99728.00;130322;1268;109006;-72
2022/01/08 12:49:22;;;;;;;35.70;20.00;;;;;;;1.84;64.76;99723.90;130305;1268;108964;-72
2022/01/08 12:52:28;;;;;;;34.50;19.30;;;;;;;1.84;64.78;99719.02;130251;1268;108599;-72
2022/01/08 12:55:34;;;;;;;36.60;19.90;;;;;;;1.83;64.87;99717.11;130305;1268;109069;-72
2022/01/08 12:58:49;;;;;;;42.00;22.20;;;;;;;1.85;64.95;99713.99;130227;1268;109781;-73
2022/01/08 13:01:55;;;;;;;37.20;21.30;;;;;;;1.85;65.03;99709.45;130290;1268;108858;-71
2022/01/08 13:05:02;;;;;;;35.50;19.50;;;;;;;1.85;65.01;99707.33;130309;1268;108655;-72
2022/01/08 13:08:08;;;;;;;34.30;19.80;;;;;;;1.80;65.07;99702.23;130298;1268;108787;-72
2022/01/08 13:11:18;;;;;;;37.40;21.10;;;;;;;1.78;65.08;99703.64;130284;1268;108994;-73
2022/01/08 13:14:28;;;;;;;34.20;19.60;;;;;;;1.74;65.08;99709.53;130264;1268;109051;-72
2022/01/08 13:17:34;;;;;;;41.60;22.20;;;;;;;1.71;65.11;99704.62;130290;1268;108881;-72
2022/01/08 13:20:39;;;;;;;41.50;20.80;;;;;;;1.69;65.33;99697.79;130229;1267;108708;-70
2022/01/08 13:23:51;;;;;;;31.20;19.20;;;;;;;1.68;65.19;99700.17;130248;1268;108774;-74
2022/01/08 13:26:59;;;;;;;34.70;18.80;;;;;;;1.66;65.31;99700.13;130316;1267;107571;-72
2022/01/08 13:30:10;;;;;;;34.10;18.50;;;;;;;1.65;65.25;99704.19;130238;1268;108623;-73
2022/01/08 13:33:25;;;;;;;34.50;19.30;;;;;;;1.64;65.38;99701.83;130279;1268;108843;-73
2022/01/08 13:36:30;;;;;;;38.90;21.30;;;;;;;1.61;65.24;99696.77;130308;1266;108788;-73
2022/01/08 13:39:39;;;;;;;37.60;21.30;;;;;;;1.58;65.28;99695.59;130287;1268;108869;-72
2022/01/08 13:42:45;;;;;;;40.20;20.40;;;;;;;1.56;65.46;99693.05;130299;1267;108507;-72
2022/01/08 13:45:55;;;;;;;36.80;20.00;;;;;;;1.54;65.41;99692.00;130268;1268;108814;-73
2022/01/08 13:49:06;;;;;;;38.20;21.50;;;;;;;1.52;65.51;99694.74;130291;1268;108794;-73
2022/01/08 13:52:16;;;;;;;41.10;24.20;;;;;;;1.52;65.48;99695.67;130297;1267;108705;-72
2022/01/08 13:55:25;;;;;;;35.60;18.70;;;;;;;1.49;65.43;99693.62;130288;1268;108742;-72
2022/01/08 13:58:32;;;;;;;31.70;17.80;;;;;;;1.47;65.39;99689.86;130291;1268;108517;-73
2022/01/08 14:01:46;;;;;;;36.70;18.60;;;;;;;1.46;65.34;99687.67;130311;1268;108847;-74
2022/01/08 14:04:53;;;;;;;42.80;23.20;;;;;;;1.44;65.51;99689.02;130286;1268;108534;-72
2022/01/08 14:08:08;;;;;;;35.70;19.70;;;;;;;1.43;65.43;99695.80;130253;1268;108663;-71
2022/01/08 14:11:22;;;;;;;30.20;17.20;;;;;;;1.42;65.47;99692.46;130279;1268;109117;-71
2022/01/08 14:14:39;;;;;;;87.10;46.60;;;;;;;1.40;65.36;99689.14;130288;1268;108712;-72
2022/01/08 14:17:44;;;;;;;42.60;22.20;;;;;;;1.39;65.45;99693.61;130217;1268;108943;-73
2022/01/08 14:20:51;;;;;;;70.70;35.30;;;;;;;1.35;65.46;99694.73;130254;1268;107434;-72